Cresbard, South Dakota
Current Conditions -  °F | °C
As of 6:53 AM on Wednesday 26 Nov 2014 (Local Time) from KABR Reporting Station
Scattered Clouds Scattered Clouds  
Wind Chill: -12°   Ceiling: Unl
Heat Index:   Visibility: 10mi
Dew Point:   Wind: 21mph
Humidity: 80%   Direction: 350°N
Pressure: 30.26"   Gusts: NA
Location:  45.17°N, 98.95°W
Report Text: KABR 261253Z AUTO 35018KT 10SM SCT008 M13/M16 A3026 RMK AO2 SLP271 T11331161
Loading
Personal Weather Stations






























Interactive Weather Map New forecast layout! Learn more

10-Day Weather Forecast

Advertisements
Track Severe Weather on mobile